createdAt,value
2018-08-12T00:01:56.954Z,1.87
2018-08-12T00:04:25.534Z,2.20
2018-08-12T00:06:54.375Z,2.00
2018-08-12T00:09:22.955Z,2.00
2018-08-12T00:11:51.766Z,2.10
2018-08-12T00:14:20.354Z,1.97
2018-08-12T00:16:49.006Z,2.40
2018-08-12T00:19:17.573Z,1.90
2018-08-12T00:21:46.142Z,2.10
2018-08-12T00:24:14.681Z,2.00
2018-08-12T00:26:43.283Z,1.83
2018-08-12T00:29:11.920Z,2.03
2018-08-12T00:31:40.519Z,2.50
2018-08-12T00:34:09.621Z,2.20
2018-08-12T00:36:38.269Z,1.53
2018-08-12T00:39:09.779Z,2.80
2018-08-12T00:41:38.367Z,2.60
2018-08-12T00:44:07.435Z,2.20
2018-08-12T00:46:36.154Z,2.00
2018-08-12T00:49:04.847Z,2.30
2018-08-12T00:51:33.482Z,2.23
2018-08-12T00:54:02.047Z,2.10
2018-08-12T00:56:30.694Z,2.07
2018-08-12T00:58:59.224Z,2.30
2018-08-12T01:01:27.872Z,2.13
2018-08-12T01:03:56.508Z,2.23
2018-08-12T01:06:25.088Z,2.10
2018-08-12T01:08:53.710Z,2.30
2018-08-12T01:11:22.270Z,2.10
2018-08-12T01:13:50.886Z,2.40
2018-08-12T01:16:19.438Z,2.30
2018-08-12T01:18:48.123Z,1.90
2018-08-12T01:21:16.687Z,2.43
2018-08-12T01:23:45.286Z,2.40
2018-08-12T01:26:14.221Z,2.57
2018-08-12T01:28:42.777Z,2.50
2018-08-12T01:31:11.349Z,2.50
2018-08-12T01:33:39.947Z,2.33
2018-08-12T01:36:08.526Z,2.60
2018-08-12T01:38:37.127Z,2.40
2018-08-12T01:41:05.747Z,2.37
2018-08-12T01:43:34.365Z,2.27
2018-08-12T01:46:02.958Z,2.27
2018-08-12T01:48:31.614Z,2.80
2018-08-12T01:51:00.202Z,2.97
2018-08-12T01:53:28.845Z,2.77
2018-08-12T01:55:57.366Z,2.10
2018-08-12T01:58:25.979Z,2.70
2018-08-12T02:00:54.531Z,2.77
2018-08-12T02:03:23.095Z,2.87
2018-08-12T02:05:52.498Z,3.30
2018-08-12T02:08:21.074Z,2.73
2018-08-12T02:10:49.675Z,2.60
2018-08-12T02:13:18.237Z,2.80
2018-08-12T02:15:46.826Z,3.07
2018-08-12T02:18:15.358Z,3.00
2018-08-12T02:20:43.918Z,2.77
2018-08-12T02:23:12.478Z,3.00
2018-08-12T02:25:41.063Z,3.03
2018-08-12T02:28:09.662Z,3.63
2018-08-12T02:30:38.241Z,2.70
2018-08-12T02:33:06.823Z,3.00
2018-08-12T02:35:35.424Z,3.03
2018-08-12T02:38:04.022Z,3.07
2018-08-12T02:40:32.588Z,2.60
2018-08-12T02:43:01.179Z,3.03
2018-08-12T02:45:29.825Z,2.87
2018-08-12T02:47:58.342Z,2.70
2018-08-12T02:50:26.988Z,3.00
2018-08-12T02:52:55.571Z,2.97
2018-08-12T02:55:24.158Z,3.00
2018-08-12T02:57:52.775Z,3.03
2018-08-12T03:00:21.368Z,3.27
2018-08-12T03:02:50.019Z,3.20
2018-08-12T03:05:18.684Z,3.87
2018-08-12T03:07:47.351Z,3.20
2018-08-12T03:10:15.888Z,2.97
2018-08-12T03:12:44.454Z,3.30
2018-08-12T03:15:13.007Z,3.30
2018-08-12T03:17:41.554Z,3.50
2018-08-12T03:20:11.506Z,3.07
2018-08-12T03:22:40.126Z,3.53
2018-08-12T03:25:09.825Z,3.10
2018-08-12T03:27:38.374Z,3.30
2018-08-12T03:30:08.064Z,3.13
2018-08-12T03:32:42.842Z,3.50
2018-08-12T03:35:11.402Z,3.23
2018-08-12T03:37:39.990Z,3.10
2018-08-12T03:40:10.891Z,3.70
2018-08-12T03:42:39.497Z,3.50
2018-08-12T03:45:08.792Z,3.80
2018-08-12T03:47:37.418Z,3.20
2018-08-12T03:50:06.743Z,3.10
2018-08-12T03:52:35.379Z,3.20
2018-08-12T03:55:04.803Z,3.33
2018-08-12T03:57:33.499Z,4.10
2018-08-12T04:00:02.130Z,3.50
2018-08-12T04:02:30.677Z,3.30
2018-08-12T04:04:59.258Z,3.50
2018-08-12T04:07:27.845Z,3.60
2018-08-12T04:09:56.410Z,3.73
2018-08-12T04:12:25.001Z,3.93
2018-08-12T04:14:53.574Z,3.87
2018-08-12T04:17:22.170Z,3.43
2018-08-12T04:19:50.713Z,3.90
2018-08-12T04:22:19.306Z,3.43
2018-08-12T04:24:47.842Z,3.40
2018-08-12T04:27:16.382Z,3.40
2018-08-12T04:29:44.959Z,4.07
2018-08-12T04:32:13.527Z,3.60
2018-08-12T04:34:42.067Z,3.67
2018-08-12T04:37:10.698Z,3.60
2018-08-12T04:39:39.358Z,3.50
2018-08-12T04:42:08.018Z,3.53
2018-08-12T04:44:36.639Z,3.00
2018-08-12T04:47:05.220Z,3.37
2018-08-12T04:49:33.791Z,3.10
2018-08-12T04:52:02.388Z,3.30
2018-08-12T04:54:31.035Z,3.37
2018-08-12T04:56:59.646Z,3.37
2018-08-12T04:59:28.216Z,3.23
2018-08-12T05:01:56.785Z,2.70
2018-08-12T05:04:25.450Z,2.93
2018-08-12T05:06:54.063Z,3.17
2018-08-12T05:09:22.649Z,3.50
2018-08-12T05:11:51.213Z,3.07
2018-08-12T05:14:19.845Z,4.07
2018-08-12T05:16:48.419Z,3.30
2018-08-12T05:19:16.987Z,3.13
2018-08-12T05:21:45.643Z,3.47
2018-08-12T05:24:14.219Z,3.10
2018-08-12T05:26:42.783Z,2.70
2018-08-12T05:29:11.450Z,3.40
2018-08-12T05:31:40.136Z,3.40
2018-08-12T05:34:08.759Z,3.30
2018-08-12T05:36:37.365Z,3.00
2018-08-12T05:39:09.156Z,2.87
2018-08-12T05:41:37.807Z,2.90
2018-08-12T05:44:06.643Z,2.90
2018-08-12T05:46:35.223Z,2.83
2018-08-12T05:49:03.886Z,3.00
2018-08-12T05:51:32.480Z,2.97
2018-08-12T05:54:01.099Z,3.00
2018-08-12T05:56:29.742Z,3.10
2018-08-12T05:58:58.362Z,2.87
2018-08-12T06:01:26.941Z,2.87
2018-08-12T06:03:55.566Z,2.67
2018-08-12T06:06:24.112Z,3.00
2018-08-12T06:08:52.742Z,2.73
2018-08-12T06:11:21.433Z,3.10
2018-08-12T06:13:50.033Z,3.20
2018-08-12T06:16:18.690Z,3.77
2018-08-12T06:18:47.230Z,5.87
2018-08-12T06:21:15.871Z,5.20
2018-08-12T06:23:44.409Z,3.00
2018-08-12T06:26:12.935Z,4.10
2018-08-12T06:28:41.566Z,4.63
2018-08-12T06:31:10.178Z,3.30
2018-08-12T06:33:38.766Z,3.03
2018-08-12T06:36:07.347Z,3.10
2018-08-12T06:38:35.980Z,2.70
2018-08-12T06:41:04.529Z,3.60
2018-08-12T06:43:33.140Z,3.67
2018-08-12T06:46:01.696Z,3.00
2018-08-12T06:48:30.340Z,2.60
2018-08-12T06:50:58.931Z,2.47
2018-08-12T06:53:27.526Z,2.97
2018-08-12T06:55:56.198Z,2.20
2018-08-12T06:58:24.783Z,2.60
2018-08-12T07:00:53.407Z,2.73
2018-08-12T07:03:22.034Z,2.97
2018-08-12T07:05:50.560Z,3.00
2018-08-12T07:08:19.172Z,2.73
2018-08-12T07:10:47.779Z,2.87
2018-08-12T07:13:16.344Z,2.33
2018-08-12T07:15:44.931Z,2.50
2018-08-12T07:18:13.565Z,2.20
2018-08-12T07:20:42.102Z,2.43
2018-08-12T07:23:10.750Z,2.37
2018-08-12T07:25:39.334Z,2.03
2018-08-12T07:28:07.955Z,2.60
2018-08-12T07:30:36.578Z,2.50
2018-08-12T07:33:05.189Z,2.20
2018-08-12T07:35:33.793Z,2.73
2018-08-12T07:38:02.418Z,2.60
2018-08-12T07:40:31.033Z,2.20
2018-08-12T07:42:59.674Z,2.00
2018-08-12T07:45:28.246Z,2.20
2018-08-12T07:47:56.905Z,1.97
2018-08-12T07:50:25.477Z,2.20
2018-08-12T07:52:54.110Z,2.27
2018-08-12T07:55:22.753Z,2.20
2018-08-12T07:57:51.335Z,2.30
2018-08-12T08:00:20.687Z,2.50
2018-08-12T08:02:49.374Z,2.60
2018-08-12T08:05:17.982Z,2.70
2018-08-12T08:07:46.544Z,2.53
2018-08-12T08:10:16.387Z,2.50
2018-08-12T08:12:45.189Z,2.40
2018-08-12T08:15:21.325Z,1.80
2018-08-12T08:17:50.091Z,2.10
2018-08-12T08:20:18.741Z,1.80
2018-08-12T08:22:47.432Z,1.67
2018-08-12T08:25:16.142Z,1.70
2018-08-12T08:27:44.798Z,2.13
2018-08-12T08:30:14.853Z,1.83
2018-08-12T08:32:43.616Z,1.90
2018-08-12T08:35:13.039Z,1.90
2018-08-12T08:37:42.146Z,1.80
2018-08-12T08:40:13.352Z,1.73
2018-08-12T08:42:41.954Z,1.80
2018-08-12T08:45:14.129Z,2.20
2018-08-12T08:47:43.777Z,2.00
2018-08-12T08:50:12.316Z,1.87
2018-08-12T08:52:40.892Z,1.40
2018-08-12T08:55:11.056Z,2.20
2018-08-12T08:57:39.621Z,1.70
2018-08-12T09:00:13.739Z,1.70
2018-08-12T09:02:44.023Z,1.70
2018-08-12T09:05:13.881Z,1.80
2018-08-12T09:07:42.722Z,1.70
2018-08-12T09:10:13.235Z,1.87
2018-08-12T09:12:41.829Z,1.60
2018-08-12T09:15:13.627Z,1.80
2018-08-12T09:17:42.920Z,1.50
2018-08-12T09:20:13.090Z,1.87
2018-08-12T09:22:41.949Z,1.73
2018-08-12T09:25:11.419Z,2.17
2018-08-12T09:27:40.130Z,2.10
2018-08-12T09:30:12.582Z,1.90
2018-08-12T09:32:41.598Z,1.70
2018-08-12T09:35:10.260Z,1.67
2018-08-12T09:37:38.930Z,1.97
2018-08-12T09:40:09.659Z,2.00
2018-08-12T09:42:38.300Z,1.33
2018-08-12T09:45:08.907Z,1.90
2018-08-12T09:47:37.555Z,1.47
2018-08-12T09:50:06.613Z,1.70
2018-08-12T09:52:35.481Z,1.60
2018-08-12T09:55:04.641Z,1.57
2018-08-12T09:57:33.295Z,1.20
2018-08-12T10:00:01.924Z,1.30
2018-08-12T10:02:30.493Z,1.53
2018-08-12T10:04:59.454Z,1.70
2018-08-12T10:07:28.003Z,1.20
2018-08-12T10:09:56.584Z,1.70
2018-08-12T10:12:25.194Z,1.50
2018-08-12T10:14:53.791Z,1.77
2018-08-12T10:17:22.494Z,1.60
2018-08-12T10:19:51.160Z,1.63
2018-08-12T10:22:19.804Z,1.60
2018-08-12T10:24:48.348Z,1.40
2018-08-12T10:27:16.920Z,1.40
2018-08-12T10:29:45.532Z,1.30
2018-08-12T10:32:14.096Z,1.37
2018-08-12T10:34:42.726Z,1.33
2018-08-12T10:37:11.308Z,1.47
2018-08-12T10:39:40.002Z,2.17
2018-08-12T10:42:08.551Z,1.70
2018-08-12T10:44:37.098Z,1.70
2018-08-12T10:47:05.799Z,2.93
2018-08-12T10:49:34.417Z,1.70
2018-08-12T10:52:03.059Z,1.60
2018-08-12T10:54:31.680Z,1.30
2018-08-12T10:57:00.367Z,1.90
2018-08-12T10:59:29.028Z,1.47
2018-08-12T11:01:57.666Z,1.60
2018-08-12T11:04:26.337Z,1.73
2018-08-12T11:06:55.043Z,1.57
2018-08-12T11:09:23.679Z,2.03
2018-08-12T11:11:52.347Z,1.90
2018-08-12T11:14:20.929Z,1.60
2018-08-12T11:16:49.466Z,2.33
2018-08-12T11:19:18.123Z,2.13
2018-08-12T11:21:46.692Z,1.97
2018-08-12T11:24:15.303Z,2.00
2018-08-12T11:26:43.923Z,1.70
2018-08-12T11:29:12.522Z,1.80
2018-08-12T11:31:41.103Z,1.60
2018-08-12T11:34:10.160Z,2.07
2018-08-12T11:36:38.738Z,2.20
2018-08-12T11:39:09.314Z,2.10
2018-08-12T11:41:37.937Z,1.80
2018-08-12T11:44:06.627Z,2.10
2018-08-12T11:46:35.209Z,2.30
2018-08-12T11:49:03.913Z,2.30
2018-08-12T11:51:32.775Z,2.13
2018-08-12T11:54:01.358Z,1.70
2018-08-12T11:56:29.975Z,2.13
2018-08-12T11:58:58.516Z,2.07
2018-08-12T12:01:27.134Z,1.83
2018-08-12T12:03:56.544Z,2.00
2018-08-12T12:06:25.127Z,2.30
2018-08-12T12:08:53.735Z,2.07
2018-08-12T12:11:22.299Z,2.20
2018-08-12T12:13:50.901Z,2.30
2018-08-12T12:16:19.455Z,1.87
2018-08-12T12:18:48.047Z,2.20
2018-08-12T12:21:16.633Z,2.40
2018-08-12T12:23:45.187Z,1.90
2018-08-12T12:26:13.749Z,1.77
2018-08-12T12:28:42.323Z,1.80
2018-08-12T12:31:10.952Z,2.00
2018-08-12T12:33:39.541Z,2.23
2018-08-12T12:36:08.270Z,1.97
2018-08-12T12:38:36.851Z,2.30
2018-08-12T12:41:05.442Z,2.10
2018-08-12T12:43:34.039Z,2.00
2018-08-12T12:46:02.660Z,2.40
2018-08-12T12:48:31.530Z,2.20
2018-08-12T12:51:00.142Z,1.97
2018-08-12T12:53:28.760Z,2.00
2018-08-12T12:55:57.338Z,2.00
2018-08-12T12:58:26.021Z,1.80
2018-08-12T13:00:54.655Z,2.10
2018-08-12T13:03:23.239Z,1.60
2018-08-12T13:05:51.892Z,1.77
2018-08-12T13:08:20.516Z,1.97
2018-08-12T13:10:49.113Z,1.60
2018-08-12T13:13:17.734Z,2.00
2018-08-12T13:15:46.333Z,2.20
2018-08-12T13:18:14.942Z,1.77
2018-08-12T13:20:43.508Z,1.67
2018-08-12T13:23:12.196Z,1.77
2018-08-12T13:25:40.788Z,1.83
2018-08-12T13:28:09.382Z,1.63
2018-08-12T13:30:38.047Z,1.70
2018-08-12T13:33:06.739Z,1.77
2018-08-12T13:35:35.271Z,2.27
2018-08-12T13:38:03.885Z,2.20
2018-08-12T13:40:32.505Z,1.83
2018-08-12T13:43:01.107Z,1.70
2018-08-12T13:45:29.751Z,2.03
2018-08-12T13:47:58.417Z,1.87
2018-08-12T13:50:27.011Z,1.63
2018-08-12T13:52:55.598Z,1.90
2018-08-12T13:55:25.100Z,1.90
2018-08-12T13:57:54.218Z,1.63
2018-08-12T14:00:24.170Z,1.80
2018-08-12T14:02:52.831Z,1.50
2018-08-12T14:05:21.762Z,2.07
2018-08-12T14:07:50.977Z,1.60
2018-08-12T14:10:19.591Z,1.60
2018-08-12T14:12:48.286Z,1.90
2018-08-12T14:15:18.985Z,1.73
2018-08-12T14:17:48.583Z,1.63
2018-08-12T14:20:18.449Z,1.80
2018-08-12T14:22:47.082Z,2.00
2018-08-12T14:25:15.771Z,1.80
2018-08-12T14:27:44.865Z,1.50
2018-08-12T14:30:16.450Z,1.90
2018-08-12T14:32:45.717Z,1.60
2018-08-12T14:35:14.365Z,1.63
2018-08-12T14:37:43.011Z,2.20
2018-08-12T14:40:12.589Z,1.80
2018-08-12T14:42:41.188Z,1.70
2018-08-12T14:45:11.994Z,1.90
2018-08-12T14:47:41.102Z,1.43
2018-08-12T14:50:13.490Z,2.00
2018-08-12T14:52:42.386Z,1.73
2018-08-12T14:55:11.694Z,2.10
2018-08-12T14:57:40.908Z,1.97
2018-08-12T15:00:12.193Z,1.80
2018-08-12T15:02:40.837Z,2.00
2018-08-12T15:05:09.467Z,1.97
2018-08-12T15:07:38.336Z,1.67
2018-08-12T15:10:08.609Z,1.70
2018-08-12T15:12:37.206Z,2.00
2018-08-12T15:15:07.161Z,2.20
2018-08-12T15:17:35.734Z,1.53
2018-08-12T15:20:04.759Z,1.60
2018-08-12T15:22:33.443Z,1.77
2018-08-12T15:25:01.895Z,1.60
2018-08-12T15:27:30.496Z,1.70
2018-08-12T15:29:59.076Z,1.60
2018-08-12T15:32:27.682Z,1.70
2018-08-12T15:34:56.267Z,2.40
2018-08-12T15:37:24.864Z,1.83
2018-08-12T15:39:53.458Z,1.70
2018-08-12T15:42:22.122Z,1.90
2018-08-12T15:44:50.610Z,1.60
2018-08-12T15:47:19.226Z,1.73
2018-08-12T15:49:47.823Z,1.77
2018-08-12T15:52:16.422Z,1.97
2018-08-12T15:54:45.027Z,1.80
2018-08-12T15:57:13.652Z,1.90
2018-08-12T15:59:42.253Z,1.70
2018-08-12T16:02:10.816Z,1.90
2018-08-12T16:04:39.415Z,1.53
2018-08-12T16:07:08.974Z,1.80
2018-08-12T16:09:37.791Z,2.10
2018-08-12T16:12:07.906Z,1.80
2018-08-12T16:14:36.825Z,1.67
2018-08-12T16:17:05.725Z,2.00
2018-08-12T16:19:34.390Z,2.13
2018-08-12T16:22:02.928Z,1.80
2018-08-12T16:24:31.546Z,2.30
2018-08-12T16:27:00.154Z,2.10
2018-08-12T16:29:28.786Z,1.93
2018-08-12T16:31:57.456Z,1.70
2018-08-12T16:34:26.076Z,1.90
2018-08-12T16:36:54.699Z,1.90
2018-08-12T16:39:23.241Z,1.97
2018-08-12T16:41:51.737Z,1.70
2018-08-12T16:44:20.349Z,1.90
2018-08-12T16:46:48.903Z,1.93
2018-08-12T16:49:17.644Z,2.10
2018-08-12T16:51:46.254Z,1.67
2018-08-12T16:54:14.858Z,2.23
2018-08-12T16:56:43.494Z,2.60
2018-08-12T16:59:12.099Z,2.00
2018-08-12T17:01:40.675Z,1.80
2018-08-12T17:04:09.339Z,1.80
2018-08-12T17:06:37.942Z,1.90
2018-08-12T17:09:09.078Z,1.70
2018-08-12T17:11:37.694Z,1.93
2018-08-12T17:14:06.892Z,2.10
2018-08-12T17:16:35.609Z,2.07
2018-08-12T17:19:04.312Z,2.20
2018-08-12T17:21:32.928Z,2.07
2018-08-12T17:24:01.516Z,1.93
2018-08-12T17:26:30.149Z,2.10
2018-08-12T17:28:58.769Z,2.50
2018-08-12T17:31:27.370Z,2.20
2018-08-12T17:33:55.981Z,2.50
2018-08-12T17:36:24.589Z,2.67
2018-08-12T17:38:53.352Z,2.40
2018-08-12T17:41:21.855Z,2.80
2018-08-12T17:43:50.502Z,2.67
2018-08-12T17:46:50.058Z,2.63
2018-08-12T17:49:18.676Z,2.50
2018-08-12T17:51:47.262Z,3.27
2018-08-12T17:54:15.849Z,3.03
2018-08-12T17:56:44.486Z,2.53
2018-08-12T17:59:13.058Z,3.30
2018-08-12T18:01:41.856Z,2.67
2018-08-12T18:04:10.436Z,2.37
2018-08-12T18:06:39.041Z,2.10
2018-08-12T18:09:08.535Z,2.60
2018-08-12T18:11:37.105Z,2.37
2018-08-12T18:14:05.726Z,2.10
2018-08-12T18:16:34.296Z,2.33
2018-08-12T18:19:02.852Z,2.30
2018-08-12T18:21:31.442Z,1.90
2018-08-12T18:23:59.993Z,2.30
2018-08-12T18:26:28.607Z,2.10
2018-08-12T18:28:57.162Z,2.17
2018-08-12T18:31:25.857Z,2.30
2018-08-12T18:33:54.484Z,2.23
2018-08-12T18:36:23.039Z,3.47
2018-08-12T18:38:51.736Z,2.67
2018-08-12T18:41:20.338Z,2.37
2018-08-12T18:43:48.978Z,2.70
2018-08-12T18:46:17.668Z,2.30
2018-08-12T18:48:46.311Z,2.60
2018-08-12T18:51:14.842Z,2.27
2018-08-12T18:53:43.466Z,2.20
2018-08-12T18:56:12.062Z,2.67
2018-08-12T19:05:39.274Z,2.37
2018-08-12T19:08:07.848Z,2.10
2018-08-12T19:10:36.435Z,2.07
2018-08-12T19:14:07.754Z,1.87
2018-08-12T19:16:36.342Z,2.67
2018-08-12T19:19:05.221Z,2.50
2018-08-12T19:21:33.802Z,2.70
2018-08-12T19:24:02.416Z,2.70
2018-08-12T19:26:30.974Z,2.50
2018-08-12T19:28:59.677Z,2.70
2018-08-12T19:31:28.203Z,3.20
2018-08-12T19:33:56.724Z,3.07
2018-08-12T19:36:25.295Z,2.47
2018-08-12T19:38:53.835Z,2.13
2018-08-12T19:41:22.492Z,2.47
2018-08-12T19:43:51.086Z,2.37
2018-08-12T19:46:19.693Z,2.53
2018-08-12T19:48:48.304Z,2.50
2018-08-12T19:51:16.952Z,2.30
2018-08-12T19:53:45.570Z,2.37
2018-08-12T19:56:14.132Z,3.20
2018-08-12T19:58:42.743Z,2.30
2018-08-12T20:01:11.314Z,4.50
2018-08-12T20:03:39.914Z,3.90
2018-08-12T20:06:08.462Z,4.53
2018-08-12T20:08:37.042Z,3.77
2018-08-12T20:11:05.626Z,3.77
2018-08-12T20:13:34.225Z,2.73
2018-08-12T20:16:02.820Z,2.03
2018-08-12T20:18:31.469Z,2.40
2018-08-12T20:21:00.037Z,2.33
2018-08-12T20:23:28.606Z,2.23
2018-08-12T20:25:57.215Z,3.23
2018-08-12T20:28:25.747Z,2.53
2018-08-12T20:30:54.314Z,2.50
2018-08-12T20:33:22.874Z,2.67
2018-08-12T20:35:51.446Z,3.10
2018-08-12T20:38:20.083Z,1.77
2018-08-12T20:40:48.676Z,2.40
2018-08-12T20:43:17.309Z,2.60
2018-08-12T20:45:46.790Z,2.03
2018-08-12T20:48:21.875Z,2.20
2018-08-12T20:50:50.457Z,2.10
2018-08-12T20:53:25.991Z,2.30
2018-08-12T20:55:54.566Z,2.10
2018-08-12T20:58:23.124Z,2.10
2018-08-12T21:00:51.670Z,2.30
2018-08-12T21:03:20.201Z,2.60
2018-08-12T21:05:48.757Z,2.80
2018-08-12T21:08:17.310Z,2.80
2018-08-12T21:10:45.946Z,2.00
2018-08-12T21:13:14.507Z,1.97
2018-08-12T21:15:43.081Z,2.10
2018-08-12T21:18:11.690Z,2.50
2018-08-12T21:20:40.250Z,2.03
2018-08-12T21:23:08.854Z,2.37
2018-08-12T21:25:37.510Z,1.90
2018-08-12T21:28:06.418Z,2.37
2018-08-12T21:30:35.033Z,2.43
2018-08-12T21:33:03.616Z,2.30
2018-08-12T21:35:32.278Z,2.10
2018-08-12T21:38:00.862Z,2.70
2018-08-12T21:40:29.478Z,2.50
2018-08-12T21:42:58.057Z,2.10
2018-08-12T21:45:26.639Z,2.50
2018-08-12T21:47:55.359Z,2.37
2018-08-12T21:50:23.938Z,2.13
2018-08-12T21:52:52.510Z,2.23
2018-08-12T21:55:21.086Z,2.47
2018-08-12T21:57:49.683Z,2.27
2018-08-12T22:00:18.243Z,2.00
2018-08-12T22:02:46.871Z,2.10
2018-08-12T22:05:15.518Z,2.90
2018-08-12T22:07:44.067Z,2.07
2018-08-12T22:10:12.643Z,2.03
2018-08-12T22:12:41.188Z,2.40
2018-08-12T22:15:09.772Z,3.20
2018-08-12T22:17:38.678Z,3.50
2018-08-12T22:20:07.473Z,2.70
2018-08-12T22:22:36.047Z,3.10
2018-08-12T22:25:04.706Z,2.20
2018-08-12T22:27:33.284Z,1.83
2018-08-12T22:30:01.875Z,2.43
2018-08-12T22:32:30.466Z,2.70
2018-08-12T22:34:59.082Z,2.60
2018-08-12T22:37:27.649Z,2.60
2018-08-12T22:39:56.274Z,2.23
2018-08-12T22:42:24.817Z,2.33
2018-08-12T22:44:53.395Z,2.70
2018-08-12T22:47:21.963Z,3.53
2018-08-12T22:49:50.553Z,2.70
2018-08-12T22:52:19.106Z,2.60
2018-08-12T22:54:47.689Z,2.47
2018-08-12T22:57:16.289Z,2.37
2018-08-12T22:59:44.815Z,2.57
2018-08-12T23:02:13.464Z,2.10
2018-08-12T23:04:42.167Z,2.27
2018-08-12T23:07:10.744Z,2.50
2018-08-12T23:09:39.332Z,2.23
2018-08-12T23:12:07.870Z,2.57
2018-08-12T23:14:36.426Z,2.00
2018-08-12T23:17:05.083Z,2.30
2018-08-12T23:19:33.722Z,2.23
2018-08-12T23:22:02.390Z,2.37
2018-08-12T23:24:30.969Z,2.77
2018-08-12T23:26:59.511Z,2.33
2018-08-12T23:29:28.078Z,2.63
2018-08-12T23:31:56.653Z,2.43
2018-08-12T23:34:25.239Z,2.70
2018-08-12T23:36:53.828Z,2.63
2018-08-12T23:39:22.402Z,2.20
2018-08-12T23:41:50.990Z,2.50
2018-08-12T23:44:19.542Z,1.97
2018-08-12T23:46:48.079Z,2.00
2018-08-12T23:49:16.666Z,2.37
2018-08-12T23:51:45.198Z,2.23
2018-08-12T23:54:13.797Z,2.73
2018-08-12T23:56:42.367Z,2.40
2018-08-12T23:59:10.995Z,2.40
